createdAt,value
2023-03-26T00:01:24.458Z,72.22
2023-03-26T00:03:58.141Z,72.09
2023-03-26T00:06:27.778Z,72.09
2023-03-26T00:08:56.269Z,72.00
2023-03-26T00:11:25.471Z,71.96
2023-03-26T00:13:56.936Z,72.00
2023-03-26T00:16:26.313Z,72.05
2023-03-26T00:18:53.557Z,71.83
2023-03-26T00:21:27.886Z,71.81
2023-03-26T00:24:06.507Z,71.91
2023-03-26T00:26:35.614Z,71.87
2023-03-26T00:29:04.105Z,71.74
2023-03-26T00:31:31.913Z,71.80
2023-03-26T00:33:59.569Z,71.80
2023-03-26T00:36:27.006Z,72.00
2023-03-26T00:38:54.960Z,71.74
2023-03-26T00:41:26.385Z,72.13
2023-03-26T00:43:56.626Z,71.74
2023-03-26T00:46:29.449Z,71.84
2023-03-26T00:49:00.145Z,71.84
2023-03-26T00:51:28.734Z,71.57
2023-03-26T00:53:56.594Z,71.79
2023-03-26T00:56:24.646Z,71.73
2023-03-26T00:58:51.649Z,72.00
2023-03-26T01:01:27.847Z,71.96
2023-03-26T01:04:08.426Z,71.84
2023-03-26T01:06:39.604Z,71.80
2023-03-26T01:09:19.018Z,72.28
2023-03-26T01:11:47.995Z,72.11
2023-03-26T01:14:17.702Z,71.98
2023-03-26T01:16:52.849Z,72.00
2023-03-26T01:19:38.237Z,71.96
2023-03-26T01:22:06.819Z,72.24
2023-03-26T01:24:33.695Z,72.06
2023-03-26T01:27:24.591Z,72.03
2023-03-26T01:29:54.448Z,72.24
2023-03-26T01:32:33.660Z,72.18
2023-03-26T01:35:04.693Z,72.17
2023-03-26T01:37:39.135Z,72.24
2023-03-26T01:40:23.768Z,72.28
2023-03-26T01:43:00.554Z,72.15
2023-03-26T01:45:34.142Z,72.09
2023-03-26T01:48:01.198Z,72.04
2023-03-26T01:50:28.125Z,71.87
2023-03-26T01:52:55.012Z,72.02
2023-03-26T01:55:26.295Z,72.30
2023-03-26T01:58:06.079Z,72.17
2023-03-26T02:00:42.451Z,72.23
2023-03-26T02:03:30.264Z,72.03
2023-03-26T02:06:06.229Z,72.08
2023-03-26T02:08:41.511Z,72.16
2023-03-26T02:11:16.037Z,72.03
2023-03-26T02:13:45.997Z,72.31
2023-03-26T02:16:17.153Z,72.31
2023-03-26T02:18:46.406Z,72.28
2023-03-26T02:21:20.425Z,72.41
2023-03-26T02:23:58.087Z,72.64
2023-03-26T02:26:25.913Z,72.49
2023-03-26T02:29:04.119Z,72.64
2023-03-26T02:31:31.775Z,72.80
2023-03-26T02:33:58.855Z,72.77
2023-03-26T02:36:28.597Z,72.85
2023-03-26T02:39:00.333Z,72.79
2023-03-26T02:41:30.162Z,72.74
2023-03-26T02:44:04.626Z,72.83
2023-03-26T02:46:58.000Z,73.06
2023-03-26T02:49:44.050Z,73.02
2023-03-26T02:52:18.676Z,73.27
2023-03-26T02:54:48.215Z,73.21
2023-03-26T02:57:23.937Z,73.25
2023-03-26T02:59:53.844Z,73.24
2023-03-26T03:02:38.759Z,73.48
2023-03-26T03:05:26.615Z,73.46
2023-03-26T03:08:21.169Z,73.63
2023-03-26T03:11:22.271Z,73.64
2023-03-26T03:13:51.519Z,73.66
2023-03-26T03:16:36.327Z,73.67
2023-03-26T03:19:06.606Z,73.68
2023-03-26T03:21:36.928Z,73.71
2023-03-26T03:24:04.040Z,73.99
2023-03-26T03:26:36.548Z,73.72
2023-03-26T03:29:29.273Z,73.96
2023-03-26T03:32:00.283Z,73.86
2023-03-26T03:34:46.198Z,73.89
2023-03-26T03:37:13.040Z,73.97
2023-03-26T03:39:45.885Z,73.86
2023-03-26T03:42:17.104Z,73.82
2023-03-26T03:44:44.739Z,73.95
2023-03-26T03:47:31.643Z,73.84
2023-03-26T03:50:00.294Z,73.60
2023-03-26T03:52:28.236Z,73.64
2023-03-26T03:54:57.791Z,73.92
2023-03-26T03:57:42.755Z,73.94
2023-03-26T04:00:15.648Z,73.84
2023-03-26T04:02:43.198Z,73.90
2023-03-26T04:05:11.980Z,73.80
2023-03-26T04:07:45.330Z,73.82
2023-03-26T04:10:18.222Z,73.93
2023-03-26T04:13:08.401Z,74.05
2023-03-26T04:15:54.332Z,73.95
2023-03-26T04:18:22.372Z,73.93
2023-03-26T04:20:49.970Z,73.95
2023-03-26T04:23:22.773Z,73.73
2023-03-26T04:25:57.935Z,74.14
2023-03-26T04:28:47.973Z,73.97
2023-03-26T04:31:24.948Z,73.95
2023-03-26T04:33:56.462Z,74.08
2023-03-26T04:36:28.607Z,74.04
2023-03-26T04:38:58.585Z,74.00
2023-03-26T04:41:46.226Z,73.99
2023-03-26T04:44:22.484Z,74.14
2023-03-26T04:47:00.372Z,74.12
2023-03-26T04:49:35.791Z,73.93
2023-03-26T04:52:02.986Z,74.26
2023-03-26T04:54:52.935Z,74.36
2023-03-26T04:57:29.725Z,74.25
2023-03-26T05:00:19.175Z,74.09
2023-03-26T05:02:54.155Z,74.26
2023-03-26T05:05:22.018Z,74.12
2023-03-26T05:07:50.335Z,74.30
2023-03-26T05:10:22.906Z,74.35
2023-03-26T05:12:57.647Z,74.39
2023-03-26T05:15:32.259Z,74.25
2023-03-26T05:18:12.581Z,74.50
2023-03-26T05:20:43.634Z,74.47
2023-03-26T05:23:11.180Z,74.52
2023-03-26T05:25:49.281Z,74.59
2023-03-26T05:28:23.398Z,74.54
2023-03-26T05:30:55.622Z,74.73
2023-03-26T05:33:25.157Z,74.55
2023-03-26T05:36:21.441Z,74.47
2023-03-26T05:38:58.954Z,74.56
2023-03-26T05:41:49.234Z,74.64
2023-03-26T05:44:17.334Z,74.59
2023-03-26T05:46:44.722Z,74.84
2023-03-26T05:49:18.975Z,75.07
2023-03-26T05:51:46.138Z,74.94
2023-03-26T05:54:34.909Z,74.99
2023-03-26T05:57:01.986Z,74.74
2023-03-26T05:59:51.916Z,74.95
2023-03-26T06:02:18.906Z,75.05
2023-03-26T06:05:06.208Z,74.89
2023-03-26T06:07:51.755Z,75.14
2023-03-26T06:10:19.841Z,75.11
2023-03-26T06:12:47.152Z,75.12
2023-03-26T06:15:14.281Z,75.15
2023-03-26T06:18:10.712Z,75.18
2023-03-26T06:20:56.198Z,75.25
2023-03-26T06:23:41.840Z,75.18
2023-03-26T06:26:28.506Z,75.27
2023-03-26T06:29:09.648Z,75.35
2023-03-26T06:32:18.321Z,75.83
2023-03-26T06:34:50.876Z,75.53
2023-03-26T06:37:17.805Z,75.53
2023-03-26T06:39:46.500Z,75.62
2023-03-26T06:42:19.287Z,75.71
2023-03-26T06:45:18.644Z,75.76
2023-03-26T06:48:04.620Z,75.39
2023-03-26T06:51:00.820Z,75.58
2023-03-26T06:53:50.731Z,75.42
2023-03-26T06:56:37.596Z,75.26
2023-03-26T06:59:20.976Z,74.99
2023-03-26T07:02:06.354Z,75.02
2023-03-26T07:04:56.336Z,75.07
2023-03-26T07:07:46.374Z,75.15
2023-03-26T07:10:33.298Z,74.98
2023-03-26T07:13:37.888Z,74.93
2023-03-26T07:16:33.758Z,74.80
2023-03-26T07:19:23.707Z,74.74
2023-03-26T07:21:51.693Z,74.78
2023-03-26T07:24:37.440Z,74.55
2023-03-26T07:27:31.850Z,74.38
2023-03-26T07:30:07.885Z,74.54
2023-03-26T07:33:10.826Z,74.54
2023-03-26T07:36:00.261Z,74.54
2023-03-26T07:39:21.299Z,74.73
2023-03-26T07:42:31.093Z,74.51
2023-03-26T07:45:32.877Z,74.47
2023-03-26T07:48:17.617Z,74.21
2023-03-26T07:51:00.182Z,74.53
2023-03-26T07:53:45.889Z,74.54
2023-03-26T07:56:43.017Z,74.58
2023-03-26T07:59:38.541Z,74.65
2023-03-26T08:02:30.588Z,74.73
2023-03-26T08:05:26.262Z,74.74
2023-03-26T08:08:11.710Z,74.99
2023-03-26T08:11:01.125Z,75.00
2023-03-26T08:13:44.031Z,74.96
2023-03-26T08:16:28.284Z,75.12
2023-03-26T08:19:29.080Z,75.27
2023-03-26T08:22:01.401Z,75.44
2023-03-26T08:24:43.698Z,75.52
2023-03-26T08:27:23.718Z,75.69
2023-03-26T08:30:05.605Z,75.83
2023-03-26T08:32:32.933Z,75.83
2023-03-26T08:35:00.342Z,76.14
2023-03-26T08:37:27.802Z,76.34
2023-03-26T08:39:54.673Z,76.13
2023-03-26T08:42:44.900Z,76.35
2023-03-26T08:45:56.740Z,76.28
2023-03-26T08:48:48.533Z,76.33
2023-03-26T08:51:47.687Z,76.69
2023-03-26T08:54:23.179Z,76.53
2023-03-26T08:57:01.936Z,76.63
2023-03-26T08:59:40.906Z,76.88
2023-03-26T09:02:16.740Z,76.68
2023-03-26T09:05:00.581Z,76.46
2023-03-26T09:07:50.304Z,76.21
2023-03-26T09:10:47.238Z,76.22
2023-03-26T09:13:41.946Z,76.23
2023-03-26T09:16:33.901Z,75.65
2023-03-26T09:19:40.647Z,75.65
2023-03-26T09:22:41.855Z,75.53
2023-03-26T09:25:43.653Z,75.31
2023-03-26T09:28:44.121Z,75.09
2023-03-26T09:31:29.562Z,75.27
2023-03-26T09:34:27.916Z,75.41
2023-03-26T09:36:57.354Z,75.41
2023-03-26T09:39:37.563Z,75.15
2023-03-26T09:42:23.114Z,75.33
2023-03-26T09:45:24.999Z,75.13
2023-03-26T09:47:57.806Z,74.46
2023-03-26T09:50:35.750Z,73.81
2023-03-26T09:53:17.940Z,73.87
2023-03-26T09:55:57.453Z,73.87
2023-03-26T09:58:27.446Z,73.87
2023-03-26T10:01:14.667Z,73.70
2023-03-26T10:03:59.934Z,73.88
2023-03-26T10:06:35.854Z,73.28
2023-03-26T10:09:27.567Z,72.36
2023-03-26T10:12:21.190Z,71.67
2023-03-26T10:14:56.944Z,71.64
2023-03-26T10:17:38.964Z,71.22
2023-03-26T10:20:31.984Z,71.27
2023-03-26T10:23:23.883Z,71.15
2023-03-26T10:25:56.593Z,69.58
2023-03-26T10:29:01.650Z,69.76
2023-03-26T10:32:00.106Z,69.94
2023-03-26T10:34:48.637Z,68.62
2023-03-26T10:37:56.029Z,67.81
2023-03-26T10:40:33.155Z,68.01
2023-03-26T10:43:14.994Z,67.59
2023-03-26T10:46:07.793Z,68.10
2023-03-26T10:48:47.029Z,71.22
2023-03-26T10:51:16.731Z,72.60
2023-03-26T10:53:52.587Z,73.12
2023-03-26T10:56:25.909Z,73.72
2023-03-26T10:58:55.485Z,74.64
2023-03-26T11:01:46.987Z,74.76
2023-03-26T11:04:39.302Z,75.11
2023-03-26T11:07:24.801Z,75.18
2023-03-26T11:10:02.486Z,75.67
2023-03-26T11:12:47.039Z,75.69
2023-03-26T11:15:29.991Z,76.16
2023-03-26T11:18:21.678Z,76.35
2023-03-26T11:21:19.250Z,76.45
2023-03-26T11:24:13.347Z,76.68
2023-03-26T11:27:14.960Z,76.76
2023-03-26T11:29:45.976Z,76.70
2023-03-26T11:32:16.833Z,76.76
2023-03-26T11:34:58.367Z,77.06
2023-03-26T11:37:34.150Z,77.03
2023-03-26T11:40:06.587Z,77.09
2023-03-26T11:42:34.352Z,77.11
2023-03-26T11:45:05.696Z,77.29
2023-03-26T11:47:41.061Z,77.96
2023-03-26T11:50:15.976Z,77.95
2023-03-26T11:52:44.111Z,78.13
2023-03-26T11:55:13.071Z,78.21
2023-03-26T11:57:43.274Z,77.48
2023-03-26T12:00:21.051Z,77.23
2023-03-26T12:02:49.153Z,76.99
2023-03-26T12:05:20.596Z,77.18
2023-03-26T12:07:47.482Z,77.25
2023-03-26T12:10:40.305Z,76.74
2023-03-26T12:13:27.733Z,76.11
2023-03-26T12:16:00.686Z,74.82
2023-03-26T12:18:28.699Z,75.09
2023-03-26T12:21:13.971Z,75.57
2023-03-26T12:23:58.122Z,73.28
2023-03-26T12:26:42.857Z,74.18
2023-03-26T12:29:13.968Z,74.47
2023-03-26T12:32:02.995Z,72.53
2023-03-26T12:34:34.997Z,70.91
2023-03-26T12:37:04.296Z,70.91
2023-03-26T12:40:07.330Z,71.26
2023-03-26T12:44:49.407Z,72.76
2023-03-26T12:45:44.376Z,73.98
2023-03-26T12:48:15.717Z,75.70
2023-03-26T12:51:08.281Z,76.86
2023-03-26T12:53:53.411Z,77.41
2023-03-26T12:56:50.296Z,77.69
2023-03-26T13:00:01.830Z,77.80
2023-03-26T13:02:50.203Z,77.29
2023-03-26T13:06:06.882Z,75.96
2023-03-26T13:09:03.545Z,75.38
2023-03-26T13:11:42.579Z,74.77
2023-03-26T13:14:37.593Z,74.48
2023-03-26T13:17:25.807Z,74.73
2023-03-26T13:20:01.852Z,74.69
2023-03-26T13:22:58.097Z,74.86
2023-03-26T13:25:38.262Z,74.60
2023-03-26T13:28:05.208Z,74.60
2023-03-26T13:30:36.162Z,74.89
2023-03-26T13:33:31.152Z,74.99
2023-03-26T13:36:23.961Z,73.21
2023-03-26T13:39:08.239Z,72.32
2023-03-26T13:41:52.047Z,71.27
2023-03-26T13:44:37.610Z,69.98
2023-03-26T13:47:13.465Z,70.06
2023-03-26T13:49:52.043Z,69.84
2023-03-26T13:52:40.760Z,69.69
2023-03-26T13:55:47.623Z,68.92
2023-03-26T13:58:34.364Z,66.89
2023-03-26T14:01:17.009Z,65.26
2023-03-26T14:04:17.927Z,65.01
2023-03-26T14:07:12.554Z,65.01
2023-03-26T14:10:10.265Z,64.20
2023-03-26T14:12:57.645Z,64.38
2023-03-26T14:15:44.370Z,65.16
2023-03-26T14:18:30.884Z,66.97
2023-03-26T14:21:07.356Z,67.52
2023-03-26T14:23:54.482Z,67.65
2023-03-26T14:27:03.973Z,68.10
2023-03-26T14:29:56.529Z,67.39
2023-03-26T14:32:50.382Z,68.30
2023-03-26T14:35:20.456Z,67.66
2023-03-26T14:37:58.594Z,66.77
2023-03-26T14:40:30.269Z,66.58
2023-03-26T14:43:30.298Z,66.69
2023-03-26T14:46:18.961Z,66.85
2023-03-26T14:49:13.615Z,66.07
2023-03-26T14:52:09.552Z,65.69
2023-03-26T14:54:43.055Z,65.94
2023-03-26T14:57:46.833Z,66.48
2023-03-26T15:00:30.104Z,65.37
2023-03-26T15:03:38.732Z,65.55
2023-03-26T15:06:21.301Z,65.27
2023-03-26T15:09:49.109Z,65.65
2023-03-26T15:12:27.754Z,65.54
2023-03-26T15:15:31.736Z,65.15
2023-03-26T15:18:27.801Z,64.93
2023-03-26T15:21:12.899Z,64.11
2023-03-26T15:23:42.993Z,64.57
2023-03-26T15:26:41.857Z,63.51
2023-03-26T15:29:17.386Z,63.37
2023-03-26T15:32:12.104Z,62.89
2023-03-26T15:35:09.901Z,63.21
2023-03-26T15:37:37.262Z,62.78
2023-03-26T15:40:20.517Z,62.60
2023-03-26T15:42:51.382Z,62.41
2023-03-26T15:45:26.969Z,62.74
2023-03-26T15:48:13.887Z,62.63
2023-03-26T15:50:50.976Z,62.77
2023-03-26T15:53:29.610Z,62.97
2023-03-26T15:56:23.917Z,63.05
2023-03-26T15:59:02.990Z,62.90
2023-03-26T16:01:48.515Z,63.28
2023-03-26T16:04:50.278Z,63.24
2023-03-26T16:07:22.047Z,63.09
2023-03-26T16:09:54.350Z,63.69
2023-03-26T16:12:34.619Z,63.19
2023-03-26T16:15:07.611Z,61.98
2023-03-26T16:18:09.431Z,61.47
2023-03-26T16:20:51.151Z,61.03
2023-03-26T16:23:29.486Z,60.99
2023-03-26T16:26:08.342Z,60.44
2023-03-26T16:28:45.284Z,60.11
2023-03-26T16:31:35.431Z,58.29
2023-03-26T16:34:05.480Z,58.29
2023-03-26T16:36:42.088Z,58.67
2023-03-26T16:39:10.569Z,60.15
2023-03-26T16:41:45.276Z,59.34
2023-03-26T16:44:26.947Z,60.31
2023-03-26T16:46:53.929Z,60.56
2023-03-26T16:49:42.374Z,61.29
2023-03-26T16:52:15.380Z,61.27
2023-03-26T16:55:06.754Z,62.22
2023-03-26T16:57:45.491Z,62.11
2023-03-26T17:00:39.760Z,62.50
2023-03-26T17:03:37.777Z,62.82
2023-03-26T17:06:27.045Z,62.97
2023-03-26T17:08:57.462Z,63.63
2023-03-26T17:11:30.967Z,63.31
2023-03-26T17:14:04.213Z,63.85
2023-03-26T17:16:39.469Z,64.13
2023-03-26T17:19:32.989Z,64.23
2023-03-26T17:22:17.722Z,63.70
2023-03-26T17:24:57.134Z,63.50
2023-03-26T17:28:39.496Z,62.52
2023-03-26T17:31:26.432Z,61.40
2023-03-26T17:33:53.963Z,61.92
2023-03-26T17:36:31.105Z,61.97
2023-03-26T17:39:17.552Z,62.26
2023-03-26T17:42:26.786Z,62.24
2023-03-26T17:44:57.151Z,62.14
2023-03-26T17:47:33.656Z,62.75
2023-03-26T17:50:06.870Z,62.74
2023-03-26T17:53:02.071Z,62.76
2023-03-26T17:55:38.900Z,62.75
2023-03-26T17:58:20.868Z,62.54
2023-03-26T18:00:52.847Z,62.31
2023-03-26T18:03:31.104Z,62.29
2023-03-26T18:06:07.164Z,62.14
2023-03-26T18:08:41.616Z,62.35
2023-03-26T18:11:37.896Z,61.99
2023-03-26T18:14:33.865Z,61.71
2023-03-26T18:17:02.303Z,61.87
2023-03-26T18:19:31.943Z,62.58
2023-03-26T18:22:04.645Z,61.64
2023-03-26T18:24:37.410Z,61.58
2023-03-26T18:27:12.449Z,61.55
2023-03-26T18:30:02.011Z,61.60
2023-03-26T18:32:33.846Z,61.15
2023-03-26T18:35:22.165Z,61.70
2023-03-26T18:37:53.429Z,61.63
2023-03-26T18:40:22.161Z,61.90
2023-03-26T18:42:56.282Z,61.47
2023-03-26T18:45:36.709Z,61.61
2023-03-26T18:48:11.164Z,62.10
2023-03-26T18:50:41.207Z,62.46
2023-03-26T18:53:28.673Z,62.41
2023-03-26T18:55:56.812Z,62.98
2023-03-26T18:58:35.834Z,62.97
2023-03-26T19:01:20.225Z,63.21
2023-03-26T19:03:53.842Z,63.29
2023-03-26T19:06:21.317Z,63.76
2023-03-26T19:08:48.608Z,64.04
2023-03-26T19:11:17.807Z,63.99
2023-03-26T19:13:58.258Z,63.27
2023-03-26T19:16:29.036Z,63.96
2023-03-26T19:18:59.047Z,64.19
2023-03-26T19:21:26.225Z,64.29
2023-03-26T19:23:55.082Z,64.84
2023-03-26T19:26:22.515Z,64.37
2023-03-26T19:28:53.496Z,64.76
2023-03-26T19:31:38.926Z,64.24
2023-03-26T19:34:12.142Z,64.85
2023-03-26T19:36:52.292Z,66.94
2023-03-26T19:39:36.487Z,68.39
2023-03-26T19:42:06.611Z,69.04
2023-03-26T19:44:35.912Z,69.81
2023-03-26T19:47:07.796Z,70.34
2023-03-26T19:49:48.475Z,71.23
2023-03-26T19:52:34.568Z,71.55
2023-03-26T19:55:04.829Z,71.72
2023-03-26T19:57:36.370Z,71.13
2023-03-26T20:00:13.525Z,70.74
2023-03-26T20:02:42.391Z,70.78
2023-03-26T20:05:19.775Z,70.88
2023-03-26T20:07:47.073Z,70.99
2023-03-26T20:10:14.172Z,71.51
2023-03-26T20:12:41.165Z,71.83
2023-03-26T20:15:20.603Z,71.90
2023-03-26T20:17:50.355Z,71.96
2023-03-26T20:20:17.563Z,71.53
2023-03-26T20:22:47.026Z,71.68
2023-03-26T20:27:53.115Z,71.55
2023-03-26T20:30:36.407Z,71.60
2023-03-26T20:33:12.441Z,71.48
2023-03-26T20:35:41.098Z,71.44
2023-03-26T20:38:09.707Z,71.22
2023-03-26T20:40:38.574Z,71.35
2023-03-26T20:43:11.419Z,71.21
2023-03-26T20:45:38.853Z,71.28
2023-03-26T20:48:06.227Z,71.30
2023-03-26T20:50:35.784Z,71.48
2023-03-26T20:53:03.135Z,71.17
2023-03-26T20:55:30.321Z,71.29
2023-03-26T20:57:57.641Z,71.12
2023-03-26T21:00:24.637Z,71.47
2023-03-26T21:02:53.796Z,71.22
2023-03-26T21:05:24.564Z,71.22
2023-03-26T21:08:01.188Z,71.26
2023-03-26T21:10:31.771Z,71.28
2023-03-26T21:13:19.539Z,71.33
2023-03-26T21:15:46.692Z,70.90
2023-03-26T21:18:13.979Z,71.33
2023-03-26T21:20:44.877Z,71.35
2023-03-26T21:23:39.228Z,71.45
2023-03-26T21:26:09.617Z,71.16
2023-03-26T21:28:46.214Z,71.22
2023-03-26T21:31:18.704Z,71.13
2023-03-26T21:33:47.800Z,71.26
2023-03-26T21:36:15.579Z,71.50
2023-03-26T21:38:43.623Z,71.41
2023-03-26T21:41:23.937Z,71.67
2023-03-26T21:43:51.649Z,71.74
2023-03-26T21:46:18.805Z,71.51
2023-03-26T21:48:46.092Z,71.78
2023-03-26T21:51:19.421Z,71.90
2023-03-26T21:53:46.704Z,72.05
2023-03-26T21:56:36.762Z,72.20
2023-03-26T21:59:23.948Z,72.16
2023-03-26T22:02:09.847Z,72.26
2023-03-26T22:04:43.846Z,72.09
2023-03-26T22:07:15.909Z,72.02
2023-03-26T22:09:43.892Z,72.19
2023-03-26T22:12:11.583Z,72.29
2023-03-26T22:14:38.890Z,72.29
2023-03-26T22:17:05.955Z,72.45
2023-03-26T22:19:34.598Z,72.20
2023-03-26T22:22:01.893Z,72.25
2023-03-26T22:24:29.403Z,72.15
2023-03-26T22:26:56.598Z,72.09
2023-03-26T22:29:24.211Z,71.93
2023-03-26T22:31:51.243Z,72.10
2023-03-26T22:34:18.298Z,72.03
2023-03-26T22:36:45.817Z,72.03
2023-03-26T22:39:12.673Z,71.91
2023-03-26T22:41:39.493Z,72.09
2023-03-26T22:44:18.991Z,72.19
2023-03-26T22:46:49.082Z,72.17
2023-03-26T22:49:16.741Z,72.13
2023-03-26T22:51:43.797Z,72.21
2023-03-26T22:54:10.719Z,72.09
2023-03-26T22:56:37.758Z,71.72
2023-03-26T22:59:04.836Z,71.99
2023-03-26T23:01:31.860Z,72.01
2023-03-26T23:03:58.917Z,71.93
2023-03-26T23:06:25.855Z,72.04
2023-03-26T23:08:54.383Z,72.01
2023-03-26T23:11:22.202Z,72.04
2023-03-26T23:13:49.673Z,72.23
2023-03-26T23:16:17.628Z,72.16
2023-03-26T23:18:44.652Z,71.81
2023-03-26T23:21:17.082Z,72.00
2023-03-26T23:23:44.670Z,72.21
2023-03-26T23:26:11.809Z,72.25
2023-03-26T23:28:38.950Z,72.43
2023-03-26T23:31:08.136Z,72.48
2023-03-26T23:33:37.741Z,72.29
2023-03-26T23:36:09.339Z,72.50
2023-03-26T23:38:43.442Z,72.33
2023-03-26T23:41:15.344Z,72.48
2023-03-26T23:43:53.981Z,72.60
2023-03-26T23:46:34.910Z,72.48
2023-03-26T23:49:04.648Z,72.50
2023-03-26T23:51:32.366Z,72.45
2023-03-26T23:54:00.683Z,72.47
2023-03-26T23:56:28.976Z,72.80
2023-03-26T23:58:56.083Z,72.59
